N172SE -KMKE
Flight info
| Callsign | N172SE |
|---|---|
| Flight time | N/A |
| Altitude | VFR |
| Route | |
| Aircraft | C172/L-VGD/C |
Departure
| Time | N/A |
|---|---|
| Airport | - |
Arrival
| Time | 2026-04-26 02:30 |
|---|---|
| Airport | General Mitchell International Airport (KMKE) |
| Time | Latitude | Longitude | Altitude | Speed | Heading |
|---|---|---|---|---|---|
| 2026-04-26 02:24 | 42.96370 | -88.10169 | 3480 ft | 102 kts | 94° |
| 2026-04-26 02:24 | 42.96292 | -88.09208 | 3356 ft | 102 kts | 94° |
| 2026-04-26 02:24 | 42.96211 | -88.08241 | 3229 ft | 101 kts | 94° |
| 2026-04-26 02:24 | 42.96136 | -88.07309 | 3101 ft | 99 kts | 92° |
| 2026-04-26 02:25 | 42.96060 | -88.06389 | 3002 ft | 95 kts | 92° |
| 2026-04-26 02:25 | 42.96041 | -88.05526 | 2986 ft | 87 kts | 84° |
| 2026-04-26 02:25 | 42.95797 | -88.04785 | 2967 ft | 92 kts | 128° |
| 2026-04-26 02:25 | 42.95176 | -88.04355 | 2795 ft | 105 kts | 150° |
| 2026-04-26 02:26 | 42.94495 | -88.03957 | 2612 ft | 105 kts | 139° |
| 2026-04-26 02:26 | 42.93881 | -88.03371 | 2359 ft | 111 kts | 135° |
| 2026-04-26 02:26 | 42.93476 | -88.02525 | 2110 ft | 105 kts | 96° |
| 2026-04-26 02:26 | 42.93392 | -88.01688 | 2092 ft | 85 kts | 93° |
| 2026-04-26 02:27 | 42.93308 | -88.00895 | 1971 ft | 84 kts | 93° |
| 2026-04-26 02:27 | 42.93250 | -88.00115 | 1909 ft | 83 kts | 88° |
| 2026-04-26 02:27 | 42.93230 | -87.99302 | 1821 ft | 90 kts | 89° |
| 2026-04-26 02:27 | 42.93133 | -87.98481 | 1772 ft | 87 kts | 91° |
| 2026-04-26 02:28 | 42.93095 | -87.97656 | 1639 ft | 87 kts | 88° |
| 2026-04-26 02:28 | 42.93070 | -87.96828 | 1486 ft | 86 kts | 85° |
| 2026-04-26 02:28 | 42.93072 | -87.96131 | 1404 ft | 66 kts | 84° |
| 2026-04-26 02:28 | 42.93086 | -87.95496 | 1288 ft | 68 kts | 79° |
| 2026-04-26 02:29 | 42.93158 | -87.94870 | 1235 ft | 65 kts | 72° |
| 2026-04-26 02:29 | 42.93290 | -87.94277 | 1181 ft | 66 kts | 67° |
| 2026-04-26 02:29 | 42.93435 | -87.93665 | 1097 ft | 68 kts | 67° |
| 2026-04-26 02:29 | 42.93581 | -87.93068 | 993 ft | 67 kts | 66° |
| 2026-04-26 02:30 | 42.93730 | -87.92472 | 887 ft | 62 kts | 66° |
| 2026-04-26 02:30 | 42.93869 | -87.91913 | 792 ft | 61 kts | 62° |
| 2026-04-26 02:30 | 42.94003 | -87.91393 | 706 ft | 49 kts | 67° |
| 2026-04-26 02:30 | 42.94126 | -87.90930 | 695 ft | 69 kts | 69° |
| 2026-04-26 02:31 | 42.94295 | -87.90203 | 783 ft | 83 kts | 68° |
| 2026-04-26 02:31 | 42.94465 | -87.89462 | 966 ft | 80 kts | 66° |
| 2026-04-26 02:31 | 42.94627 | -87.88771 | 1174 ft | 75 kts | 72° |
| 2026-04-26 02:31 | 42.94514 | -87.88115 | 1388 ft | 77 kts | 116° |
| 2026-04-26 02:32 | 42.94052 | -87.87733 | 1566 ft | 85 kts | 166° |
| 2026-04-26 02:32 | 42.93490 | -87.88175 | 1614 ft | 101 kts | 232° |
| 2026-04-26 02:32 | 42.93117 | -87.88986 | 1718 ft | 100 kts | 239° |
| 2026-04-26 02:32 | 42.92777 | -87.89870 | 1642 ft | 102 kts | 244° |
| 2026-04-26 02:33 | 42.92518 | -87.90721 | 1615 ft | 96 kts | 252° |
| 2026-04-26 02:33 | 42.92308 | -87.91576 | 1589 ft | 93 kts | 253° |
| 2026-04-26 02:33 | 42.92313 | -87.92367 | 1560 ft | 78 kts | 293° |
| 2026-04-26 02:33 | 42.92619 | -87.92921 | 1454 ft | 70 kts | 330° |
| 2026-04-26 02:34 | 42.93058 | -87.93140 | 1276 ft | 65 kts | 7° |
| 2026-04-26 02:34 | 42.93455 | -87.92962 | 1096 ft | 61 kts | 34° |
| 2026-04-26 02:34 | 42.93731 | -87.92516 | 898 ft | 63 kts | 58° |
| 2026-04-26 02:34 | 42.93864 | -87.91967 | 793 ft | 59 kts | 60° |
| 2026-04-26 02:35 | 42.93990 | -87.91463 | 706 ft | 48 kts | 67° |
| 2026-04-26 02:35 | 42.94076 | -87.91110 | 700 ft | 31 kts | 89° |
| 2026-04-26 02:35 | 42.94133 | -87.90865 | 693 ft | 23 kts | 77° |
| 2026-04-26 02:35 | 42.94139 | -87.90724 | 690 ft | 7 kts | 106° |
| 2026-04-26 02:36 | 42.94112 | -87.90685 | 690 ft | 4 kts | 181° |
| 2026-04-26 02:36 | 42.94101 | -87.90685 | 690 ft | 0 kts | 178° |
| 2026-04-26 02:36 | 42.94079 | -87.90670 | 689 ft | 6 kts | 127° |
| 2026-04-26 02:36 | 42.94068 | -87.90632 | 688 ft | 2 kts | 90° |
| 2026-04-26 02:37 | 42.94058 | -87.90610 | 688 ft | 3 kts | 165° |
| 2026-04-26 02:37 | 42.94035 | -87.90601 | 688 ft | 3 kts | 162° |
| 2026-04-26 02:37 | 42.94018 | -87.90593 | 688 ft | 1 kts | 161° |
| 2026-04-26 02:37 | 42.94015 | -87.90591 | 688 ft | 0 kts | 160° |
| 2026-04-26 02:38 | 42.94006 | -87.90584 | 687 ft | 1 kts | 81° |
| 2026-04-26 02:38 | 42.94008 | -87.90583 | 687 ft | 0 kts | 341° |
| 2026-04-26 02:38 | 42.94010 | -87.90585 | 687 ft | 1 kts | 336° |
| 2026-04-26 02:38 | 42.94029 | -87.90599 | 688 ft | 4 kts | 329° |
| 2026-04-26 02:39 | 42.94068 | -87.90627 | 688 ft | 4 kts | 302° |
| 2026-04-26 02:39 | 42.94075 | -87.90655 | 689 ft | 2 kts | 293° |
| 2026-04-26 02:39 | 42.94080 | -87.90668 | 689 ft | 0 kts | 304° |
| 2026-04-26 02:40 | 42.94084 | -87.90675 | 689 ft | 4 kts | 311° |
| 2026-04-26 02:40 | 42.94148 | -87.90708 | 690 ft | 12 kts | 23° |
| 2026-04-26 02:40 | 42.94195 | -87.90604 | 687 ft | 30 kts | 69° |
| 2026-04-26 02:41 | 42.94321 | -87.90093 | 678 ft | 76 kts | 65° |
| 2026-04-26 02:41 | 42.94490 | -87.89384 | 842 ft | 79 kts | 72° |